Flight Track Log - Related Links

Times and Time Zones

All times are in EDT time to prevent confusion due to time zone crossing. See the UAL4191 flight status page for this flight to view local times or setup timezone preferences in your user account.

Time Position Orientation Groundspeed Altitude Reporting Facility
EDT Latitude Longitude Course Direction KTS MPH feet Rate Location/Type
Fri 08:00:53 PM 40.6500 -74.1833 240° Southwest 182 209 1,600  Level New York TRACON
Fri 08:01:53 PM 40.6000 -74.2167 207° Southwest 236 272 3,100 1,850 Climbing New York TRACON
Fri 08:02:53 PM 40.5833 -74.3167 258° West 255 293 5,300 2,350 Climbing New York TRACON
Fri 08:03:53 PM 40.5833 -74.4000 270° West 264 304 7,800 2,039 Climbing New York TRACON
Fri 08:04:00 PM 40.5083 -74.7941 252° West  Level Estimated
Fri 08:05:00 PM 40.4711 -74.9188 237° Southwest  Level Estimated
Fri 08:05:26 PM 40.6053 -74.5486 281° West 260 299 10,500  Level New York Center
Fri 08:06:00 PM 40.4337 -75.0433 240° Southwest  Level Estimated
Fri 08:06:24 PM 40.6225 -74.6644 281° West 296 341 11,300  Level New York Center
Fri 08:07:24 PM 40.6414 -74.7831 282° West 326 375 12,700 1,438 Climbing New York Center
Fri 08:08:25 PM 40.6581 -74.9044 280° West 339 390 14,200 1,438 Climbing New York Center
Fri 08:09:25 PM 40.6767 -75.0261 281° West 344 396 15,600 1,328 Climbing New York Center
Fri 08:10:27 PM 40.6536 -75.1450 256° West 333 383 16,900 1,300 Climbing New York Center
Fri 08:11:25 PM 40.6014 -75.2564 238° Southwest 346 398 18,200 1,169 Climbing New York Center
Fri 08:12:25 PM 40.5578 -75.3575 240° Southwest 358 412 19,200 1,289 Climbing New York Center
Fri 08:13:26 PM 40.5056 -75.4686 238° Southwest 358 412 20,800 1,686 Climbing New York Center
Fri 08:14:26 PM 40.4575 -75.5744 239° Southwest 351 404 22,600 1,400 Climbing New York Center
Fri 08:15:26 PM 40.4075 -75.6800 238° Southwest 346 398 23,600 1,000 Climbing New York Center
Fri 08:16:26 PM 40.3569 -75.7908 239° Southwest 346 398 24,600 1,050 Climbing New York Center
Fri 08:17:26 PM 40.3019 -75.9039 237° Southwest 353 406 25,700 1,068 Climbing New York Center
Fri 08:18:24 PM 40.2469 -76.0167 237° Southwest 359 413 26,700 1,008 Climbing New York Center
Fri 08:19:25 PM 40.1939 -76.1322 239° Southwest 369 425 27,700 992 Climbing New York Center
Fri 08:20:25 PM 40.1358 -76.2581 239° Southwest 369 425 28,700 942 Climbing New York Center
Fri 08:21:26 PM 40.0872 -76.3656 239° Southwest 376 433 29,600 942 Climbing New York Center
Fri 08:22:26 PM 40.0336 -76.4806 239° Southwest 376 433 30,600 1,014 Climbing New York Center
Fri 08:24:53 PM 39.8911 -76.7839 239° Southwest 387 445 33,100 1,033 Climbing Washington Center
Fri 08:25:55 PM 39.8358 -76.8992 238° Southwest 387 445 34,200 984 Climbing Washington Center
Fri 08:26:55 PM 39.7822 -77.0172 239° Southwest 387 445 35,100 915 Climbing Washington Center
Fri 08:27:53 PM 39.7267 -77.1319 238° Southwest 381 438 36,000 454 Climbing Washington Center
Fri 08:28:54 PM 39.6689 -77.2522 238° Southwest 388 447 36,000  Level Washington Center
Fri 08:29:54 PM 39.6131 -77.3775 240° Southwest 394 453 36,000  Level Washington Center
Fri 08:30:54 PM 39.5483 -77.5103 238° Southwest 410 472 36,000  Level Washington Center
Fri 08:31:55 PM 39.4878 -77.6406 239° Southwest 424 488 36,000  Level Washington Center
Fri 08:32:53 PM 39.4253 -77.7678 238° Southwest 424 488 36,000  Level Washington Center
Fri 08:33:53 PM 39.3686 -77.8975 241° Southwest 424 488 36,000  Level Washington Center
Fri 08:34:54 PM 39.3161 -78.0300 243° Southwest 419 482 36,000  Level Washington Center
Fri 08:35:54 PM 39.2589 -78.1675 242° Southwest 419 482 36,000  Level Washington Center
Fri 08:36:55 PM 39.2039 -78.3022 242° Southwest 424 488 36,000  Level Washington Center
Fri 08:37:53 PM 39.1508 -78.4367 243° Southwest 429 494 36,000  Level Washington Center
Fri 08:38:54 PM 39.0953 -78.5736 242° Southwest 429 494 36,000  Level Washington Center
Fri 08:39:55 PM 39.0419 -78.7078 243° Southwest 424 488 36,000  Level Washington Center
Fri 08:40:53 PM 38.9883 -78.8417 243° Southwest 424 488 36,000  Level Washington Center
Fri 08:41:53 PM 38.9325 -78.9728 241° Southwest 424 488 36,000  Level Washington Center
Fri 08:42:54 PM 38.8786 -79.1064 243° Southwest 424 488 36,000  Level Washington Center
Fri 08:43:55 PM 38.8328 -79.2453 247° West 424 488 36,000  Level Washington Center
Fri 08:44:53 PM 38.8075 -79.3881 257° West 413 475 36,000  Level Washington Center
Fri 08:45:54 PM 38.7872 -79.5014 257° West 413 475 36,000  Level Washington Center
Fri 08:48:25 PM 38.7150 -79.8903 257° West 424 488 36,000  Level Indianapolis Center
Fri 08:49:27 PM 38.6881 -80.0353 257° West 421 484 36,000  Level Indianapolis Center
Fri 08:50:28 PM 38.6600 -80.1819 256° West 422 486 36,000  Level Indianapolis Center
Fri 08:51:30 PM 38.6322 -80.3289 256° West 425 489 36,000  Level Indianapolis Center
Fri 08:52:31 PM 38.6047 -80.4744 256° West 421 484 36,000  Level Indianapolis Center
Fri 08:53:32 PM 38.5778 -80.6192 257° West 419 482 36,000  Level Indianapolis Center
Fri 08:54:34 PM 38.5494 -80.7633 256° West 420 483 36,000  Level Indianapolis Center
Fri 08:55:35 PM 38.5161 -80.9364 256° West 417 480 36,000  Level Indianapolis Center
Fri 08:56:36 PM 38.4875 -81.0792 256° West 415 478 36,000  Level Indianapolis Center
Fri 08:57:38 PM 38.4594 -81.2228 256° West 414 476 36,000  Level Indianapolis Center
Fri 08:58:39 PM 38.4308 -81.3650 256° West 411 473 36,000  Level Indianapolis Center
Fri 08:59:41 PM 38.4025 -81.5086 256° West 412 474 36,000  Level Indianapolis Center
Fri 09:00:42 PM 38.3739 -81.6506 256° West 411 473 36,000  Level Indianapolis Center
Fri 09:01:43 PM 38.3447 -81.7892 255° West 404 465 36,000  Level Indianapolis Center
Fri 09:02:45 PM 38.3061 -81.9264 250° West 408 470 36,000  Level Indianapolis Center
Fri 09:03:46 PM 38.2675 -82.0619 250° West 407 468 36,000  Level Indianapolis Center
Fri 09:04:47 PM 38.2297 -82.1986 251° West 408 470 36,000  Level Indianapolis Center
Fri 09:05:49 PM 38.1919 -82.3342 251° West 408 470 36,000  Level Indianapolis Center
Fri 09:06:50 PM 38.1531 -82.4694 250° West 406 467 36,000  Level Indianapolis Center
Fri 09:07:51 PM 38.1111 -82.6142 250° West 406 467 36,000  Level Indianapolis Center
Fri 09:08:52 PM 38.0711 -82.7483 249° West 408 470 36,000  Level Indianapolis Center
Fri 09:09:53 PM 38.0331 -82.8842 250° West 410 472 36,000  Level Indianapolis Center
Fri 09:10:55 PM 37.9867 -83.0408 249° West 409 471 36,000  Level Indianapolis Center
Fri 09:11:56 PM 37.9478 -83.1750 250° West 407 468 36,000 -246 Level Indianapolis Center
Fri 09:12:57 PM 37.8981 -83.3056 244° Southwest 414 476 35,500 -787 Descending Indianapolis Center
Fri 09:13:58 PM 37.8336 -83.4231 235° Southwest 410 472 34,400 -732 Descending Indianapolis Center
Fri 09:15:00 PM 37.7700 -83.5436 236° Southwest 413 475 34,000 -195 Descending Indianapolis Center
Fri 09:16:01 PM 37.7058 -83.6639 236° Southwest 414 476 34,000  Level Indianapolis Center
Fri 09:17:02 PM 37.6400 -83.7867 236° Southwest 420 483 34,000  Level Indianapolis Center
Fri 09:18:03 PM 37.5739 -83.9089 236° Southwest 423 487 34,000  Level Indianapolis Center
Fri 09:19:04 PM 37.4961 -84.0517 236° Southwest 425 489 34,000  Level Indianapolis Center
Fri 09:20:06 PM 37.4303 -84.1750 236° Southwest 425 489 34,000 -439 Level Indianapolis Center
Fri 09:21:07 PM 37.3642 -84.2972 236° Southwest 423 487 33,100 -885 Descending Indianapolis Center
Fri 09:22:08 PM 37.2972 -84.4192 235° Southwest 424 488 32,200 -541 Descending Indianapolis Center
Fri 09:23:09 PM 37.2306 -84.5406 235° Southwest 422 486 32,000 -98 Descending Indianapolis Center
Fri 09:24:10 PM 37.1642 -84.6631 236° Southwest 423 487 32,000 -390 Level Indianapolis Center
Fri 09:25:12 PM 37.0950 -84.7858 235° Southwest 432 497 31,200 -1,366 Descending Indianapolis Center
Fri 09:26:13 PM 37.0222 -84.9172 235° Southwest 425 489 29,200 -1,967 Descending Indianapolis Center
Fri 09:27:14 PM 36.9556 -85.0369 235° Southwest 423 487 27,200 -2,016 Descending Indianapolis Center
Fri 09:28:15 PM 36.8861 -85.1606 235° Southwest 431 496 25,100 -2,000 Descending Indianapolis Center
Fri 09:29:17 PM 36.8175 -85.2839 235° Southwest 434 499 23,100 -1,512 Descending Indianapolis Center
Fri 09:30:18 PM 36.7500 -85.4042 235° Southwest 428 493 22,000 -1,131 Descending Indianapolis Center
Fri 09:31:19 PM 36.6908 -85.5286 239° Southwest 420 483 20,800 -2,115 Descending Indianapolis Center
Fri 09:32:20 PM 36.6242 -85.6694 239° Southwest 398 458 17,700 -2,341 Descending Indianapolis Center
Fri 09:33:22 PM 36.5700 -85.7839 240° Southwest 388 447 16,000 -1,659 Descending Indianapolis Center
Fri 09:34:23 PM 36.5197 -85.8889 239° Southwest 387 445 14,300 -1,672 Descending Indianapolis Center
Fri 09:35:24 PM 36.4686 -85.9944 239° Southwest 363 418 12,600 -1,770 Descending Indianapolis Center
Fri 09:36:25 PM 36.4194 -86.0981 239° Southwest 347 399 10,700 -1,220 Descending Indianapolis Center
Fri 09:37:27 PM 36.3953 -86.2175 256° West 359 413 10,100 -341 Descending Indianapolis Center
Fri 09:38:28 PM 36.3756 -86.3286 258° West 335 386 10,000 -1,033 Descending Indianapolis Center
Fri 09:39:29 PM 36.3575 -86.4192 256° West 275 316 8,000 -2,361 Descending Indianapolis Center
Fri 09:40:30 PM 36.3142 -86.4867 231° Southwest 248 285 5,200 -2,290 Descending Indianapolis Center
Fri 09:41:40 PM 36.2667 -86.5667 234° Southwest 223 257 3,000 -1,385 Descending Nashville TRACON
Fri 09:42:40 PM 36.2333 -86.6167 230° Southwest 183 211 2,200 -600 Descending Nashville TRACON
Fri 09:43:40 PM 36.2000 -86.6500 219° Southwest 153 176 1,800 -550 Descending Nashville TRACON
Fri 09:44:40 PM 36.1667 -86.6667 202° Southwest 117 135 1,100 -609 Descending Nashville TRACON
Fri 09:45:48 PM 36.1353 -86.6794 198° South 134 154 500 -529 Descending Memphis Center

Login

Don't have an account? Register now (free) for customized features, flight alerts, and more!